createdAt,value
2022-10-18T04:12:40.783Z,102422.03
2022-10-18T04:15:08.858Z,102425.47
2022-10-18T04:17:36.936Z,102435.31
2022-10-18T04:20:05.249Z,102428.66
2022-10-18T04:22:33.074Z,102436.44
2022-10-18T04:25:00.727Z,102441.25
2022-10-18T04:27:28.525Z,102443.56
2022-10-18T04:29:56.318Z,102437.19
2022-10-18T04:32:24.539Z,102436.06
2022-10-18T04:34:51.783Z,102433.59
2022-10-18T04:37:18.976Z,102439.19
2022-10-18T04:39:51.360Z,102440.09
2022-10-18T04:42:22.085Z,102434.41
2022-10-18T04:44:49.837Z,102432.41
2022-10-18T04:47:17.955Z,102432.91
2022-10-18T04:49:45.184Z,102429.59
2022-10-18T04:52:12.508Z,102428.28
2022-10-18T04:54:40.171Z,102420.56
2022-10-18T04:57:07.755Z,102428.00
2022-10-18T04:59:35.034Z,102423.44
2022-10-18T05:04:34.410Z,102418.94
2022-10-18T05:07:02.789Z,102422.25
2022-10-18T05:09:30.060Z,102423.56
2022-10-18T05:11:57.252Z,102418.25
2022-10-18T05:14:24.971Z,102419.66
2022-10-18T05:16:52.737Z,102415.91
2022-10-18T05:19:20.191Z,102416.97
2022-10-18T05:21:47.993Z,102414.50
2022-10-18T05:24:15.211Z,102419.44
2022-10-18T05:26:42.472Z,102422.81
2022-10-18T05:29:09.870Z,102421.81
2022-10-18T05:31:37.420Z,102416.47
2022-10-18T05:34:04.819Z,102425.59
2022-10-18T05:36:32.124Z,102409.97
2022-10-18T05:39:02.432Z,102410.63
2022-10-18T05:41:32.960Z,102406.66
2022-10-18T05:44:04.675Z,102411.84
2022-10-18T05:46:32.116Z,102413.16
2022-10-18T05:48:59.320Z,102409.41
2022-10-18T05:51:26.781Z,102408.53
2022-10-18T05:53:54.772Z,102410.66
2022-10-18T05:56:22.096Z,102409.03
2022-10-18T05:58:51.196Z,102412.88
2022-10-18T06:01:19.760Z,102409.66
2022-10-18T06:03:47.213Z,102416.09
2022-10-18T06:06:15.485Z,102422.66
2022-10-18T06:08:43.806Z,102418.19
2022-10-18T06:11:16.922Z,102418.44
2022-10-18T06:13:47.208Z,102417.94
2022-10-18T06:16:16.981Z,102418.47
2022-10-18T06:18:48.846Z,102416.78
2022-10-18T06:21:16.493Z,102423.00
2022-10-18T06:23:48.285Z,102420.84
2022-10-18T06:26:16.004Z,102424.78
2022-10-18T06:28:44.828Z,102422.72
2022-10-18T06:31:13.291Z,102418.28
2022-10-18T06:33:41.409Z,102427.75
2022-10-18T06:36:14.800Z,102421.84
2022-10-18T06:38:42.416Z,102425.66
2022-10-18T06:41:10.529Z,102434.53
2022-10-18T06:43:37.830Z,102432.03
2022-10-18T06:46:08.024Z,102432.06
2022-10-18T06:48:36.747Z,102443.81
2022-10-18T06:51:06.877Z,102439.25
2022-10-18T06:53:44.099Z,102441.91
2022-10-18T06:56:16.292Z,102443.69
2022-10-18T06:58:43.866Z,102437.63
2022-10-18T07:01:17.376Z,102446.00
2022-10-18T07:03:46.705Z,102450.53
2022-10-18T07:06:16.977Z,102457.06
2022-10-18T07:08:44.769Z,102461.22
2022-10-18T07:11:21.476Z,102460.56
2022-10-18T07:13:48.850Z,102459.53
2022-10-18T07:16:19.423Z,102454.81
2022-10-18T07:18:51.451Z,102459.94
2022-10-18T07:21:21.944Z,102462.56
2022-10-18T07:23:50.508Z,102464.97
2022-10-18T07:26:21.715Z,102470.06
2022-10-18T07:28:55.318Z,102466.75
2022-10-18T07:31:23.676Z,102471.19
2022-10-18T07:33:51.896Z,102467.78
2022-10-18T07:36:21.290Z,102475.25
2022-10-18T07:38:49.833Z,102480.53
2022-10-18T07:41:17.412Z,102472.56
2022-10-18T07:43:50.848Z,102486.25
2022-10-18T07:46:19.507Z,102481.63
2022-10-18T07:48:47.279Z,102477.25
2022-10-18T07:51:14.790Z,102468.84
2022-10-18T07:53:42.380Z,102465.78
2022-10-18T07:56:16.193Z,102466.09
2022-10-18T07:58:54.144Z,102462.09
2022-10-18T08:01:24.059Z,102465.81
2022-10-18T08:03:53.182Z,102466.50
2022-10-18T08:06:22.856Z,102465.31
2022-10-18T08:08:50.792Z,102460.72
2022-10-18T08:11:21.011Z,102466.88
2022-10-18T08:13:49.099Z,102460.56
2022-10-18T08:16:20.623Z,102456.31
2022-10-18T08:18:48.008Z,102461.59
2022-10-18T08:21:17.255Z,102460.22
2022-10-18T08:23:44.987Z,102463.13
2022-10-18T08:26:15.737Z,102461.50
2022-10-18T08:28:49.109Z,102465.38
2022-10-18T08:31:21.490Z,102461.47
2022-10-18T08:33:48.983Z,102464.84
2022-10-18T08:36:17.092Z,102461.06
2022-10-18T08:38:44.563Z,102457.34
2022-10-18T08:41:33.759Z,102456.06
2022-10-18T08:44:24.841Z,102454.19
2022-10-18T08:47:00.329Z,102450.56
2022-10-18T08:49:34.636Z,102451.41
2022-10-18T08:52:06.478Z,102452.13
2022-10-18T08:54:39.465Z,102446.00
2022-10-18T08:57:18.224Z,102437.38
2022-10-18T08:59:45.979Z,102433.09
2022-10-18T09:02:39.424Z,102429.78
2022-10-18T09:05:34.300Z,102431.19
2022-10-18T09:08:30.880Z,102432.44
2022-10-18T09:11:26.756Z,102434.63
2022-10-18T09:14:22.590Z,102423.41
2022-10-18T09:17:20.558Z,102423.47
2022-10-18T09:20:19.830Z,102407.38
2022-10-18T09:23:15.684Z,102412.28
2022-10-18T09:25:51.999Z,102403.53
2022-10-18T09:28:46.781Z,102398.69
2022-10-18T09:31:41.092Z,102402.06
2022-10-18T09:34:22.816Z,102395.69
2022-10-18T09:36:51.703Z,102396.28
2022-10-18T09:39:24.900Z,102391.19
2022-10-18T09:42:00.186Z,102390.06
2022-10-18T09:44:34.492Z,102382.31
2022-10-18T09:47:06.337Z,102386.53
2022-10-18T09:49:40.353Z,102377.97
2022-10-18T09:52:18.719Z,102380.72
2022-10-18T09:55:15.149Z,102375.16
2022-10-18T09:57:55.453Z,102378.72
2022-10-18T10:00:31.054Z,102371.50
2022-10-18T10:03:00.928Z,102367.19
2022-10-18T10:05:28.251Z,102372.34
2022-10-18T10:07:59.894Z,102367.34
2022-10-18T10:10:29.722Z,102365.94
2022-10-18T10:13:03.726Z,102362.44
2022-10-18T10:15:36.953Z,102352.97
2022-10-18T10:18:25.220Z,102354.94
2022-10-18T10:20:54.372Z,102346.56
2022-10-18T10:23:26.945Z,102344.00
2022-10-18T10:26:03.792Z,102339.34
2022-10-18T10:28:36.739Z,102341.97
2022-10-18T10:31:24.901Z,102343.44
2022-10-18T10:34:18.219Z,102346.75
2022-10-18T10:36:48.497Z,102332.50
2022-10-18T10:39:19.260Z,102337.81
2022-10-18T10:41:55.660Z,102327.91
2022-10-18T10:44:26.974Z,102321.59
2022-10-18T10:46:54.918Z,102319.94
2022-10-18T10:49:42.496Z,102311.38
2022-10-18T10:52:27.656Z,102312.94
2022-10-18T10:57:48.903Z,102299.63
2022-10-18T11:00:37.616Z,102300.06
2022-10-18T11:03:28.559Z,102298.28
2022-10-18T11:06:00.324Z,102282.91
2022-10-18T11:08:33.979Z,102287.09
2022-10-18T11:11:19.266Z,102288.38
2022-10-18T11:14:07.380Z,102272.59
2022-10-18T11:16:57.777Z,102267.56
2022-10-18T11:20:03.316Z,102256.59
2022-10-18T11:22:38.601Z,102261.69
2022-10-18T11:25:08.269Z,102254.25
2022-10-18T11:27:46.627Z,102237.94
2022-10-18T11:30:55.433Z,102234.66
2022-10-18T11:34:07.103Z,102228.00
2022-10-18T11:36:32.106Z,102223.84
2022-10-18T11:39:30.473Z,102208.06
2022-10-18T11:42:24.544Z,102202.78
2022-10-18T11:45:10.640Z,102199.13
2022-10-18T11:47:52.265Z,102186.88
2022-10-18T11:50:53.825Z,102179.06
2022-10-18T11:53:38.471Z,102177.06
2022-10-18T11:56:12.159Z,102183.94
2022-10-18T11:59:06.549Z,102168.66
2022-10-18T12:02:03.501Z,102170.16
2022-10-18T12:04:39.179Z,102167.94
2022-10-18T12:07:21.190Z,102166.19
2022-10-18T12:09:54.801Z,102160.72
2022-10-18T12:12:30.024Z,102146.72
2022-10-18T12:15:02.998Z,102148.06
2022-10-18T12:17:49.914Z,102144.72
2022-10-18T12:20:24.856Z,102143.00
2022-10-18T12:22:59.289Z,102135.25
2022-10-18T12:25:33.799Z,102132.97
2022-10-18T12:28:36.303Z,102121.06
2022-10-18T12:31:08.213Z,102118.72
2022-10-18T12:33:40.173Z,102110.91
2022-10-18T12:36:23.393Z,102108.06
2022-10-18T12:38:58.645Z,102102.84
2022-10-18T12:41:32.356Z,102108.13
2022-10-18T12:44:19.103Z,102102.50
2022-10-18T12:46:54.902Z,102093.97
2022-10-18T12:49:29.816Z,102088.06
2022-10-18T12:52:01.896Z,102084.09
2022-10-18T12:54:34.981Z,102079.78
2022-10-18T12:57:05.835Z,102076.94
2022-10-18T12:59:33.015Z,102053.13
2022-10-18T13:02:00.322Z,102055.31
2022-10-18T13:04:27.595Z,102061.88
2022-10-18T13:07:00.765Z,102054.81
2022-10-18T13:09:44.450Z,102047.78
2022-10-18T13:12:12.343Z,102051.72
2022-10-18T13:15:24.732Z,102048.50
2022-10-18T13:18:03.840Z,102044.81
2022-10-18T13:20:31.627Z,102036.84
2022-10-18T13:23:31.606Z,102036.53
2022-10-18T13:26:23.885Z,102010.03
2022-10-18T13:28:57.307Z,102013.56
2022-10-18T13:31:42.349Z,102002.03
2022-10-18T13:34:24.959Z,101994.50
2022-10-18T13:37:05.129Z,101994.03
2022-10-18T13:39:33.661Z,101998.53
2022-10-18T13:42:01.303Z,102003.13
2022-10-18T13:44:37.713Z,101993.13
2022-10-18T13:47:05.160Z,101985.22
2022-10-18T13:49:38.542Z,101988.09
2022-10-18T13:52:18.094Z,101980.09
2022-10-18T13:54:54.519Z,101981.88
2022-10-18T13:57:24.400Z,101970.06
2022-10-18T14:00:19.578Z,101957.84
2022-10-18T14:03:51.509Z,101956.34
2022-10-18T14:06:22.577Z,101949.84
2022-10-18T14:08:56.256Z,101937.66
2022-10-18T14:11:45.978Z,101944.78
2022-10-18T14:14:41.059Z,101954.91
2022-10-18T14:17:15.360Z,101981.22
2022-10-18T14:19:52.242Z,102003.00
2022-10-18T14:22:38.393Z,101994.44
2022-10-18T14:25:21.033Z,101999.28
2022-10-18T14:27:50.953Z,102002.97
2022-10-18T14:30:21.267Z,101998.44
2022-10-18T14:32:51.868Z,101984.50
2022-10-18T14:35:32.410Z,101991.00
2022-10-18T14:38:00.591Z,101990.91
2022-10-18T14:40:40.736Z,101996.25
2022-10-18T14:43:19.182Z,101992.00
2022-10-18T14:45:46.724Z,101993.16
2022-10-18T14:48:16.820Z,101980.53
2022-10-18T14:50:48.605Z,101970.47
2022-10-18T14:53:19.169Z,101972.88
2022-10-18T14:56:04.584Z,101972.88
2022-10-18T14:58:32.704Z,101966.16
2022-10-18T15:01:00.612Z,101960.09
2022-10-18T15:03:28.505Z,101963.88
2022-10-18T15:05:59.619Z,101960.50
2022-10-18T15:08:35.957Z,101953.84
2022-10-18T15:11:03.609Z,101947.31
2022-10-18T15:13:32.277Z,101951.66
2022-10-18T15:16:00.074Z,101957.16
2022-10-18T15:18:28.543Z,101947.59
2022-10-18T15:21:21.313Z,101942.06
2022-10-18T15:23:49.980Z,101947.13
2022-10-18T15:26:29.676Z,101939.25
2022-10-18T15:29:01.445Z,101944.47
2022-10-18T15:31:35.799Z,101943.97
2022-10-18T15:34:14.940Z,101940.56
2022-10-18T15:39:25.766Z,101946.31
2022-10-18T15:41:57.813Z,101930.66
2022-10-18T15:44:31.563Z,101935.91
2022-10-18T15:47:21.340Z,101931.06
2022-10-18T15:49:58.412Z,101932.47
2022-10-18T15:52:39.771Z,101926.28
2022-10-18T15:55:32.920Z,101918.72
2022-10-18T15:58:17.401Z,101918.38
2022-10-18T16:00:46.539Z,101923.31
2022-10-18T16:03:15.397Z,101931.88
2022-10-18T16:05:42.895Z,101936.13
2022-10-18T16:08:25.172Z,101930.31
2022-10-18T16:10:52.403Z,101933.78
2022-10-18T16:13:20.211Z,101934.09
2022-10-18T16:15:47.614Z,101927.28
2022-10-18T16:18:17.827Z,101936.94
2022-10-18T16:20:47.768Z,101939.09
2022-10-18T16:23:22.028Z,101930.78
2022-10-18T16:25:50.459Z,101933.84
2022-10-18T16:28:20.820Z,101928.78
2022-10-18T16:30:55.731Z,101939.44
2022-10-18T16:33:24.949Z,101934.81
2022-10-18T16:35:53.195Z,101940.47
2022-10-18T16:38:35.172Z,101939.53
2022-10-18T16:41:05.498Z,101951.13
2022-10-18T16:43:34.862Z,101946.09
2022-10-18T16:46:04.019Z,101953.94
2022-10-18T16:48:31.578Z,101960.34
2022-10-18T16:50:59.234Z,101954.31
2022-10-18T16:53:28.043Z,101960.06
2022-10-18T16:56:01.584Z,101965.97
2022-10-18T16:58:32.025Z,101966.31
2022-10-18T17:01:01.819Z,101969.19
2022-10-18T17:03:31.660Z,101972.91
2022-10-18T17:05:58.933Z,101971.22
2022-10-18T17:08:28.145Z,101971.69
2022-10-18T17:10:58.587Z,101971.44
2022-10-18T17:13:26.146Z,101980.84
2022-10-18T17:15:53.965Z,101974.44
2022-10-18T17:18:26.226Z,101973.56
2022-10-18T17:20:54.130Z,101976.03
2022-10-18T17:23:21.749Z,101983.69
2022-10-18T17:26:04.724Z,101984.88
2022-10-18T17:28:38.384Z,101979.09
2022-10-18T17:31:07.732Z,101984.22
2022-10-18T17:33:35.659Z,101987.91
2022-10-18T17:36:04.112Z,101988.84
2022-10-18T17:38:31.633Z,101985.47
2022-10-18T17:40:59.253Z,101989.41
2022-10-18T17:43:26.604Z,101988.28
2022-10-18T17:45:56.173Z,101996.00
2022-10-18T17:48:24.596Z,101995.63
2022-10-18T17:50:52.356Z,101995.22
2022-10-18T17:53:22.799Z,102000.84
2022-10-18T17:55:50.536Z,101994.31
2022-10-18T17:58:18.209Z,102001.09
2022-10-18T18:00:45.984Z,102003.72
2022-10-18T18:03:14.178Z,102007.53
2022-10-18T18:05:41.567Z,102002.47
2022-10-18T18:08:09.255Z,101999.94
2022-10-18T18:10:36.513Z,102001.72
2022-10-18T18:13:04.301Z,102007.88
2022-10-18T18:15:32.137Z,102008.19
2022-10-18T18:17:59.858Z,102010.09
2022-10-18T18:20:27.230Z,102013.41
2022-10-18T18:22:54.543Z,102008.91
2022-10-18T18:25:21.803Z,102010.34
2022-10-18T18:27:50.057Z,102004.41
2022-10-18T18:30:17.898Z,102016.81
2022-10-18T18:32:45.443Z,102015.16
2022-10-18T18:35:13.281Z,102017.09
2022-10-18T18:37:40.557Z,102016.84
2022-10-18T18:40:09.428Z,102016.34
2022-10-18T18:42:37.774Z,102014.44
2022-10-18T18:45:05.526Z,102010.03
2022-10-18T18:47:35.428Z,102014.94
2022-10-18T18:50:02.740Z,102012.00
2022-10-18T18:52:30.943Z,102009.06
2022-10-18T18:54:58.811Z,102011.00
2022-10-18T18:57:26.071Z,102013.50
2022-10-18T18:59:53.272Z,102014.59
2022-10-18T19:02:20.528Z,102008.66
2022-10-18T19:04:48.389Z,102009.50
2022-10-18T19:07:15.786Z,102005.09
2022-10-18T19:09:44.627Z,102001.34
2022-10-18T19:12:11.833Z,102007.72
2022-10-18T19:14:39.114Z,102010.94
2022-10-18T19:17:07.841Z,102010.06
2022-10-18T19:19:35.541Z,102013.03
2022-10-18T19:22:09.496Z,102006.53
2022-10-18T19:24:37.437Z,102013.31
2022-10-18T19:27:09.612Z,102006.59
2022-10-18T19:29:38.782Z,102017.38
2022-10-18T19:32:08.753Z,102014.63
2022-10-18T19:34:36.459Z,102008.50
2022-10-18T19:37:03.972Z,102019.75
2022-10-18T19:39:33.744Z,102006.41
2022-10-18T19:42:05.211Z,102015.09
2022-10-18T19:44:35.800Z,102009.38
2022-10-18T19:47:07.702Z,102013.22
2022-10-18T19:49:35.492Z,102009.41
2022-10-18T19:52:02.757Z,102004.78
2022-10-18T19:54:30.599Z,102003.53
2022-10-18T19:56:57.943Z,102007.97
2022-10-18T19:59:26.392Z,102009.03
2022-10-18T20:01:54.117Z,102007.34
2022-10-18T20:04:21.673Z,102010.53
2022-10-18T20:06:50.624Z,102016.06
2022-10-18T20:09:20.754Z,102025.28
2022-10-18T20:11:48.653Z,102021.25
2022-10-18T20:14:15.889Z,102022.56
2022-10-18T20:16:43.176Z,102029.94
2022-10-18T20:19:10.516Z,102018.25
2022-10-18T20:21:39.328Z,102027.88
2022-10-18T20:24:09.253Z,102024.66
2022-10-18T20:26:37.120Z,102029.31
2022-10-18T20:29:05.062Z,102027.84
2022-10-18T20:31:35.796Z,102023.84
2022-10-18T20:34:08.397Z,102030.44
2022-10-18T20:36:36.668Z,102026.44
2022-10-18T20:39:04.490Z,102034.91
2022-10-18T20:41:34.605Z,102029.63
2022-10-18T20:44:08.377Z,102030.47
2022-10-18T20:46:37.011Z,102030.06
2022-10-18T20:49:07.063Z,102034.91
2022-10-18T20:51:35.219Z,102037.47
2022-10-18T20:56:35.537Z,102025.84
2022-10-18T20:59:06.053Z,102033.66
2022-10-18T21:01:35.500Z,102031.13
2022-10-18T21:04:08.013Z,102024.78
2022-10-18T21:06:40.321Z,102022.44
2022-10-18T21:09:13.385Z,102019.25
2022-10-18T21:11:43.247Z,102022.66
2022-10-18T21:14:19.291Z,102021.16
2022-10-18T21:16:48.059Z,102031.53
2022-10-18T21:19:18.415Z,102029.63
2022-10-18T21:21:47.686Z,102026.00
2022-10-18T21:24:15.804Z,102018.44
2022-10-18T21:26:43.648Z,102017.97
2022-10-18T21:29:12.875Z,102021.38
2022-10-18T21:31:42.128Z,102019.25
2022-10-18T21:34:17.554Z,102027.28
2022-10-18T21:36:48.455Z,102022.63
2022-10-18T21:39:20.044Z,102022.41
2022-10-18T21:41:48.102Z,102017.75
2022-10-18T21:44:16.462Z,102020.50
2022-10-18T21:46:44.478Z,102018.34
2022-10-18T21:49:12.427Z,102021.31
2022-10-18T21:51:40.603Z,102012.59
2022-10-18T21:54:13.212Z,102015.13
2022-10-18T21:56:40.873Z,102020.63
2022-10-18T21:59:08.217Z,102014.94
